createdAt,value
2022-12-05T00:01:31.433Z,19.23
2022-12-05T00:04:08.753Z,18.40
2022-12-05T00:06:40.443Z,15.27
2022-12-05T00:09:12.240Z,19.02
2022-12-05T00:11:44.186Z,19.48
2022-12-05T00:14:15.506Z,21.98
2022-12-05T00:16:46.599Z,22.55
2022-12-05T00:19:19.486Z,21.90
2022-12-05T00:21:49.644Z,23.13
2022-12-05T00:24:20.933Z,21.38
2022-12-05T00:26:51.085Z,21.55
2022-12-05T00:29:21.298Z,20.23
2022-12-05T00:31:51.489Z,22.50
2022-12-05T00:34:24.163Z,22.40
2022-12-05T00:36:54.225Z,22.02
2022-12-05T00:39:24.420Z,21.60
2022-12-05T00:41:54.529Z,20.80
2022-12-05T00:44:24.677Z,21.08
2022-12-05T00:46:54.633Z,20.95
2022-12-05T00:49:27.434Z,21.27
2022-12-05T00:51:57.494Z,23.17
2022-12-05T00:54:27.528Z,19.38
2022-12-05T00:56:58.298Z,22.73
2022-12-05T00:59:28.464Z,23.20
2022-12-05T01:01:58.478Z,20.40
2022-12-05T01:04:31.215Z,22.17
2022-12-05T01:07:01.947Z,23.92
2022-12-05T01:09:33.099Z,20.45
2022-12-05T01:12:03.116Z,21.40
2022-12-05T01:14:33.144Z,22.95
2022-12-05T01:17:03.954Z,22.67
2022-12-05T01:19:36.897Z,22.25
2022-12-05T01:22:07.100Z,24.50
2022-12-05T01:24:37.232Z,23.25
2022-12-05T01:27:07.299Z,24.48
2022-12-05T01:29:37.529Z,22.05
2022-12-05T01:32:08.278Z,24.25
2022-12-05T01:34:41.132Z,23.08
2022-12-05T01:37:11.030Z,20.98
2022-12-05T01:39:41.002Z,23.35
2022-12-05T01:42:11.002Z,22.38
2022-12-05T01:45:03.445Z,20.67
2022-12-05T01:47:35.607Z,22.67
2022-12-05T01:50:10.269Z,23.25
2022-12-05T01:52:41.328Z,21.63
2022-12-05T01:55:17.668Z,26.25
2022-12-05T01:57:50.252Z,21.98
2022-12-05T02:00:21.879Z,24.52
2022-12-05T02:02:56.010Z,23.90
2022-12-05T02:05:31.785Z,21.23
2022-12-05T02:08:04.641Z,23.48
2022-12-05T02:10:40.389Z,22.08
2022-12-05T02:13:25.060Z,22.27
2022-12-05T02:16:05.055Z,21.75
2022-12-05T02:18:50.943Z,26.35
2022-12-05T02:21:58.279Z,25.52
2022-12-05T02:24:49.391Z,25.80
2022-12-05T02:27:45.758Z,24.83
2022-12-05T02:30:20.793Z,23.10
2022-12-05T02:32:59.859Z,23.88
2022-12-05T02:35:38.680Z,20.80
2022-12-05T02:38:20.376Z,24.80
2022-12-05T02:41:02.046Z,24.75
2022-12-05T02:43:37.905Z,23.55
2022-12-05T02:46:14.419Z,25.98
2022-12-05T02:48:47.985Z,20.65
2022-12-05T02:51:23.035Z,23.90
2022-12-05T02:53:54.655Z,23.38
2022-12-05T02:56:25.096Z,22.05
2022-12-05T02:58:57.572Z,23.13
2022-12-05T03:01:33.524Z,21.52
2022-12-05T03:04:07.634Z,22.40
2022-12-05T03:09:15.327Z,22.00
2022-12-05T03:11:50.256Z,22.65
2022-12-05T03:14:25.582Z,22.40
2022-12-05T03:17:03.734Z,20.88
2022-12-05T03:19:45.087Z,19.50
2022-12-05T03:22:21.949Z,23.05
2022-12-05T03:24:52.254Z,17.23
2022-12-05T03:27:29.827Z,19.95
2022-12-05T03:30:05.852Z,20.75
2022-12-05T03:32:42.811Z,18.70
2022-12-05T03:35:20.859Z,15.55
2022-12-05T03:37:55.439Z,21.45
2022-12-05T03:40:32.241Z,19.95
2022-12-05T03:43:11.940Z,18.95
2022-12-05T03:45:50.143Z,19.85
2022-12-05T03:48:30.401Z,18.10
2022-12-05T03:51:02.397Z,18.67
2022-12-05T03:53:36.227Z,16.65
2022-12-05T03:56:11.445Z,13.63
2022-12-05T03:58:47.485Z,14.80
2022-12-05T04:01:21.291Z,13.93
2022-12-05T04:03:59.329Z,12.00
2022-12-05T04:06:33.582Z,13.07
2022-12-05T04:09:10.073Z,13.05
2022-12-05T04:11:48.281Z,18.13
2022-12-05T04:14:22.315Z,14.68
2022-12-05T04:19:54.926Z,15.48
2022-12-05T04:22:27.071Z,16.45
2022-12-05T04:25:11.308Z,16.90
2022-12-05T04:27:51.618Z,14.90
2022-12-05T04:30:24.725Z,15.73
2022-12-05T04:33:03.160Z,18.65
2022-12-05T04:35:40.574Z,22.88
2022-12-05T04:38:17.863Z,17.90
2022-12-05T04:40:56.147Z,19.60
2022-12-05T04:43:28.533Z,17.98
2022-12-05T04:46:01.574Z,18.45
2022-12-05T04:48:33.534Z,20.27
2022-12-05T04:51:10.716Z,18.50
2022-12-05T04:53:44.375Z,15.45
2022-12-05T04:56:17.112Z,16.23
2022-12-05T04:58:47.299Z,17.70
2022-12-05T05:01:22.949Z,16.20
2022-12-05T05:03:57.773Z,15.00
2022-12-05T05:06:30.870Z,16.35
2022-12-05T05:09:01.370Z,17.33
2022-12-05T05:11:35.524Z,14.13
2022-12-05T05:14:06.148Z,14.70
2022-12-05T05:16:38.256Z,12.13
2022-12-05T05:19:10.036Z,15.07
2022-12-05T05:21:44.264Z,14.10
2022-12-05T05:24:17.524Z,18.55
2022-12-05T05:26:53.912Z,16.90
2022-12-05T05:29:27.203Z,22.23
2022-12-05T05:31:57.324Z,15.52
2022-12-05T05:34:28.873Z,17.88
2022-12-05T05:37:01.592Z,16.17
2022-12-05T05:39:31.700Z,15.50
2022-12-05T05:42:01.949Z,15.57
2022-12-05T05:44:32.117Z,11.57
2022-12-05T05:47:02.252Z,15.07
2022-12-05T05:49:32.379Z,15.35
2022-12-05T05:52:05.407Z,17.33
2022-12-05T05:54:35.440Z,13.73
2022-12-05T05:57:05.529Z,13.95
2022-12-05T05:59:35.840Z,13.38
2022-12-05T06:02:06.222Z,12.60
2022-12-05T06:04:38.296Z,12.00
2022-12-05T06:07:11.033Z,11.38
2022-12-05T06:09:41.399Z,11.57
2022-12-05T06:12:11.505Z,13.63
2022-12-05T06:14:41.654Z,16.15
2022-12-05T06:17:11.722Z,15.50
2022-12-05T06:19:42.068Z,14.55
2022-12-05T06:22:14.903Z,17.48
2022-12-05T06:24:45.107Z,11.93
2022-12-05T06:27:15.267Z,11.18
2022-12-05T06:29:45.647Z,12.85
2022-12-05T06:32:15.753Z,12.18
2022-12-05T06:34:45.838Z,16.35
2022-12-05T06:37:18.639Z,12.32
2022-12-05T06:39:48.932Z,15.20
2022-12-05T06:42:18.997Z,13.93
2022-12-05T06:44:49.083Z,13.30
2022-12-05T06:47:19.164Z,13.55
2022-12-05T06:49:49.256Z,13.68
2022-12-05T06:52:22.282Z,15.05
2022-12-05T06:54:52.383Z,12.90
2022-12-05T06:57:22.459Z,14.38
2022-12-05T07:00:12.537Z,14.50
2022-12-05T07:02:42.289Z,15.18
2022-12-05T07:05:12.734Z,13.48
2022-12-05T07:07:45.653Z,14.48
2022-12-05T07:10:15.746Z,12.93
2022-12-05T07:12:45.918Z,15.50
2022-12-05T07:15:16.120Z,13.18
2022-12-05T07:17:46.267Z,13.90
2022-12-05T07:20:17.975Z,13.40
2022-12-05T07:22:50.835Z,12.95
2022-12-05T07:25:22.668Z,12.18
2022-12-05T07:27:53.087Z,14.48
2022-12-05T07:30:23.303Z,14.45
2022-12-05T07:32:53.992Z,14.18
2022-12-05T07:35:24.245Z,16.95
2022-12-05T07:37:56.910Z,13.15
2022-12-05T07:40:27.279Z,14.48
2022-12-05T07:42:57.403Z,14.45
2022-12-05T07:45:27.552Z,13.98
2022-12-05T07:47:57.691Z,13.20
2022-12-05T07:50:27.774Z,16.08
2022-12-05T07:53:00.811Z,16.40
2022-12-05T07:55:30.972Z,13.80
2022-12-05T07:58:01.016Z,14.23
2022-12-05T08:00:31.153Z,16.17
2022-12-05T08:03:02.256Z,11.93
2022-12-05T08:05:32.448Z,15.85
2022-12-05T08:08:05.265Z,13.75
2022-12-05T08:10:36.756Z,12.88
2022-12-05T08:13:08.203Z,12.55
2022-12-05T08:15:39.346Z,13.30
2022-12-05T08:18:09.466Z,16.90
2022-12-05T08:20:39.562Z,13.55
2022-12-05T08:23:15.123Z,15.35
2022-12-05T08:25:45.179Z,15.15
2022-12-05T08:28:15.214Z,15.45
2022-12-05T08:30:48.296Z,16.27
2022-12-05T08:33:18.583Z,14.20
2022-12-05T08:35:48.956Z,14.80
2022-12-05T08:38:21.795Z,13.35
2022-12-05T08:40:51.829Z,14.07
2022-12-05T08:43:21.868Z,13.45
2022-12-05T08:45:55.856Z,11.98
2022-12-05T08:48:29.584Z,14.65
2022-12-05T08:51:00.367Z,15.05
2022-12-05T08:53:40.983Z,16.70
2022-12-05T08:56:14.291Z,13.55
2022-12-05T08:58:44.836Z,14.00
2022-12-05T09:01:17.768Z,14.75
2022-12-05T09:03:48.556Z,14.82
2022-12-05T09:06:21.347Z,13.45
2022-12-05T09:08:56.809Z,12.52
2022-12-05T09:11:29.375Z,13.07
2022-12-05T09:14:01.192Z,15.13
2022-12-05T09:16:37.577Z,13.85
2022-12-05T09:19:13.628Z,14.43
2022-12-05T09:21:44.120Z,14.30
2022-12-05T09:24:17.830Z,14.10
2022-12-05T09:26:48.793Z,13.15
2022-12-05T09:29:18.948Z,14.13
2022-12-05T09:31:52.420Z,14.45
2022-12-05T09:34:23.042Z,13.25
2022-12-05T09:37:05.693Z,14.60
2022-12-05T09:39:48.950Z,11.90
2022-12-05T09:45:17.806Z,12.45
2022-12-05T09:47:54.867Z,13.00
2022-12-05T09:50:28.588Z,13.68
2022-12-05T09:53:05.872Z,15.30
2022-12-05T09:55:45.933Z,14.02
2022-12-05T09:58:24.827Z,13.93
2022-12-05T10:01:01.314Z,15.98
2022-12-05T10:03:40.531Z,14.95
2022-12-05T10:06:20.534Z,15.80
2022-12-05T10:09:05.397Z,15.48
2022-12-05T10:11:44.934Z,14.50
2022-12-05T10:14:22.571Z,18.48
2022-12-05T10:16:57.233Z,16.67
2022-12-05T10:19:32.008Z,12.65
2022-12-05T10:22:07.968Z,12.93
2022-12-05T10:24:44.973Z,11.82
2022-12-05T10:27:22.636Z,13.60
2022-12-05T10:30:00.785Z,11.80
2022-12-05T10:32:34.864Z,11.50
2022-12-05T10:37:40.311Z,12.57
2022-12-05T10:40:15.740Z,12.38
2022-12-05T10:42:50.150Z,14.38
2022-12-05T10:45:23.237Z,12.55
2022-12-05T10:47:58.930Z,12.93
2022-12-05T10:50:33.139Z,10.88
2022-12-05T10:53:05.800Z,9.95
2022-12-05T10:58:41.526Z,11.98
2022-12-05T11:01:16.789Z,11.17
2022-12-05T11:03:47.863Z,12.75
2022-12-05T11:06:20.669Z,13.02
2022-12-05T11:09:06.617Z,9.73
2022-12-05T11:11:37.445Z,13.60
2022-12-05T11:14:24.112Z,12.57
2022-12-05T11:16:57.635Z,10.55
2022-12-05T11:25:27.383Z,13.20
2022-12-05T11:28:01.217Z,11.88
2022-12-05T11:30:34.514Z,11.68
2022-12-05T11:33:21.366Z,14.13
2022-12-05T11:35:53.197Z,14.60
2022-12-05T11:38:28.091Z,14.40
2022-12-05T11:41:05.764Z,15.98
2022-12-05T11:44:03.110Z,13.93
2022-12-05T11:46:46.168Z,15.10
2022-12-05T11:49:31.849Z,17.90
2022-12-05T11:52:12.023Z,15.73
2022-12-05T11:55:05.415Z,16.10
2022-12-05T11:58:03.149Z,14.68
2022-12-05T12:00:40.819Z,13.90
2022-12-05T12:03:38.965Z,16.08
2022-12-05T12:06:23.667Z,13.68
2022-12-05T12:09:10.710Z,16.17
2022-12-05T12:11:47.885Z,15.82
2022-12-05T12:14:30.909Z,15.85
2022-12-05T12:17:11.103Z,15.00
2022-12-05T12:19:54.738Z,17.90
2022-12-05T12:22:40.682Z,17.38
2022-12-05T12:25:27.566Z,17.20
2022-12-05T12:28:10.291Z,15.63
2022-12-05T12:30:58.120Z,17.80
2022-12-05T12:33:37.200Z,15.60
2022-12-05T12:36:20.010Z,15.15
2022-12-05T12:39:18.095Z,20.48
2022-12-05T12:42:26.685Z,19.25
2022-12-05T12:45:21.237Z,20.27
2022-12-05T12:48:08.272Z,15.60
2022-12-05T12:50:44.061Z,15.65
2022-12-05T12:53:37.466Z,16.88
2022-12-05T12:56:23.130Z,16.60
2022-12-05T12:59:03.233Z,16.83
2022-12-05T13:01:40.429Z,16.83
2022-12-05T13:04:16.428Z,15.85
2022-12-05T13:06:50.735Z,14.75
2022-12-05T13:09:30.274Z,17.77
2022-12-05T13:12:07.863Z,14.60
2022-12-05T13:14:41.621Z,17.20
2022-12-05T13:17:18.368Z,15.57
2022-12-05T13:19:52.019Z,15.77
2022-12-05T13:22:25.678Z,16.98
2022-12-05T13:24:59.319Z,18.20
2022-12-05T13:27:31.224Z,16.15
2022-12-05T13:30:13.593Z,15.07
2022-12-05T13:32:44.699Z,17.30
2022-12-05T13:35:34.839Z,16.52
2022-12-05T13:38:17.341Z,17.52
2022-12-05T13:41:08.487Z,18.38
2022-12-05T13:43:49.410Z,16.13
2022-12-05T13:46:31.702Z,17.77
2022-12-05T13:49:08.854Z,17.38
2022-12-05T13:51:45.701Z,15.70
2022-12-05T13:54:21.031Z,17.48
2022-12-05T13:56:58.659Z,17.20
2022-12-05T13:59:58.874Z,20.65
2022-12-05T14:03:05.713Z,19.38
2022-12-05T14:05:41.956Z,20.48
2022-12-05T14:08:50.959Z,16.92
2022-12-05T14:11:21.659Z,17.83
2022-12-05T14:14:03.972Z,17.75
2022-12-05T14:16:47.424Z,19.83
2022-12-05T14:19:34.920Z,28.20
2022-12-05T14:22:22.127Z,22.80
2022-12-05T14:25:01.262Z,21.63
2022-12-05T14:27:47.009Z,25.05
2022-12-05T14:30:39.706Z,26.55
2022-12-05T14:33:17.906Z,26.77
2022-12-05T14:35:51.854Z,24.02
2022-12-05T14:40:54.462Z,26.38
2022-12-05T14:43:30.783Z,22.23
2022-12-05T14:46:06.583Z,27.77
2022-12-05T14:48:45.731Z,25.65
2022-12-05T14:51:48.359Z,24.98
2022-12-05T14:54:21.009Z,23.35
2022-12-05T14:56:56.028Z,25.65
2022-12-05T14:59:30.826Z,24.90
2022-12-05T15:02:05.914Z,32.75
2022-12-05T15:04:41.941Z,26.77
2022-12-05T15:07:15.820Z,24.95
2022-12-05T15:09:57.376Z,25.83
2022-12-05T15:12:30.952Z,27.45
2022-12-05T15:15:09.350Z,26.30
2022-12-05T15:17:47.999Z,24.83
2022-12-05T15:20:29.852Z,31.02
2022-12-05T15:22:59.975Z,24.98
2022-12-05T15:25:33.537Z,25.65
2022-12-05T15:28:07.324Z,26.95
2022-12-05T15:30:41.295Z,30.08
2022-12-05T15:33:16.799Z,31.88
2022-12-05T15:35:51.141Z,28.15
2022-12-05T15:38:29.915Z,32.20
2022-12-05T15:41:01.931Z,31.10
2022-12-05T15:43:34.270Z,31.35
2022-12-05T15:46:24.500Z,38.28
2022-12-05T15:49:00.652Z,32.35
2022-12-05T15:51:37.792Z,36.15
2022-12-05T15:54:14.544Z,38.72
2022-12-05T15:56:48.221Z,34.33
2022-12-05T15:59:21.999Z,35.25
2022-12-05T16:01:56.787Z,32.63
2022-12-05T16:04:35.205Z,33.63
2022-12-05T16:07:09.990Z,36.03
2022-12-05T16:09:44.142Z,31.02
2022-12-05T16:12:26.924Z,36.15
2022-12-05T16:15:01.229Z,34.95
2022-12-05T16:17:40.715Z,34.42
2022-12-05T16:20:28.031Z,31.77
2022-12-05T16:23:00.977Z,34.65
2022-12-05T16:25:33.839Z,39.63
2022-12-05T16:28:17.583Z,36.85
2022-12-05T16:30:59.914Z,34.67
2022-12-05T16:33:32.462Z,33.38
2022-12-05T16:36:14.312Z,35.67
2022-12-05T16:38:46.039Z,36.10
2022-12-05T16:41:18.757Z,35.60
2022-12-05T16:43:49.370Z,35.47
2022-12-05T16:46:44.896Z,32.85
2022-12-05T16:49:41.310Z,32.35
2022-12-05T16:52:18.083Z,29.77
2022-12-05T16:54:50.725Z,33.92
2022-12-05T16:57:23.498Z,32.03
2022-12-05T16:59:55.108Z,32.30
2022-12-05T17:02:25.626Z,30.70
2022-12-05T17:04:55.818Z,31.45
2022-12-05T17:07:32.487Z,33.63
2022-12-05T17:10:04.968Z,36.13
2022-12-05T17:12:35.451Z,31.67
2022-12-05T17:15:05.668Z,31.88
2022-12-05T17:17:38.521Z,37.58
2022-12-05T17:20:12.267Z,30.55
2022-12-05T17:22:45.387Z,31.55
2022-12-05T17:25:23.220Z,36.08
2022-12-05T17:27:53.331Z,33.55
2022-12-05T17:30:23.930Z,36.63
2022-12-05T17:32:54.030Z,37.45
2022-12-05T17:35:25.520Z,35.55
2022-12-05T17:37:58.365Z,33.83
2022-12-05T17:40:29.173Z,32.03
2022-12-05T17:42:59.317Z,36.67
2022-12-05T17:45:29.914Z,33.70
2022-12-05T17:48:00.515Z,36.10
2022-12-05T17:50:31.022Z,34.38
2022-12-05T17:53:07.375Z,38.67
2022-12-05T17:55:37.703Z,36.65
2022-12-05T17:58:07.760Z,35.40
2022-12-05T18:00:38.257Z,31.95
2022-12-05T18:03:08.501Z,35.65
2022-12-05T18:05:38.869Z,33.90
2022-12-05T18:08:12.542Z,35.45
2022-12-05T18:10:44.734Z,34.95
2022-12-05T18:13:15.261Z,40.63
2022-12-05T18:15:45.770Z,37.13
2022-12-05T18:18:18.187Z,37.55
2022-12-05T18:20:48.429Z,35.45
2022-12-05T18:23:21.179Z,35.90
2022-12-05T18:26:00.098Z,39.55
2022-12-05T18:28:30.420Z,35.03
2022-12-05T18:31:08.627Z,30.13
2022-12-05T18:33:41.837Z,36.17
2022-12-05T18:36:15.598Z,38.73
2022-12-05T18:38:52.986Z,36.83
2022-12-05T18:41:23.784Z,34.88
2022-12-05T18:43:54.073Z,32.00
2022-12-05T18:46:24.478Z,36.33
2022-12-05T18:48:58.925Z,34.90
2022-12-05T18:51:32.116Z,30.48
2022-12-05T18:54:04.826Z,35.17
2022-12-05T18:56:38.366Z,36.05
2022-12-05T18:59:10.611Z,35.10
2022-12-05T19:01:42.237Z,31.48
2022-12-05T19:04:15.240Z,35.35
2022-12-05T19:06:52.252Z,34.75
2022-12-05T19:09:26.875Z,36.20
2022-12-05T19:11:59.804Z,34.22
2022-12-05T19:14:33.276Z,33.45
2022-12-05T19:17:03.514Z,27.13
2022-12-05T19:19:33.675Z,31.75
2022-12-05T19:22:03.873Z,32.10
2022-12-05T19:24:37.260Z,34.78
2022-12-05T19:27:07.558Z,32.33
2022-12-05T19:29:38.104Z,34.72
2022-12-05T19:32:08.698Z,31.70
2022-12-05T19:34:39.360Z,32.03
2022-12-05T19:37:09.517Z,28.70
2022-12-05T19:39:45.122Z,33.92
2022-12-05T19:42:15.172Z,36.50
2022-12-05T19:44:45.873Z,35.22
2022-12-05T19:47:15.964Z,30.88
2022-12-05T19:49:46.571Z,32.47
2022-12-05T19:52:18.258Z,34.10
2022-12-05T19:54:51.035Z,36.95
2022-12-05T19:57:21.061Z,31.83
2022-12-05T19:59:53.427Z,35.70
2022-12-05T20:02:25.303Z,32.03
2022-12-05T20:04:55.425Z,32.78
2022-12-05T20:07:25.600Z,34.60
2022-12-05T20:10:01.679Z,34.97
2022-12-05T20:12:32.319Z,34.57
2022-12-05T20:15:02.425Z,30.75
2022-12-05T20:17:32.875Z,33.92
2022-12-05T20:20:03.681Z,33.47
2022-12-05T20:22:33.806Z,36.53
2022-12-05T20:25:09.532Z,33.50
2022-12-05T20:27:39.572Z,34.38
2022-12-05T20:30:13.120Z,35.05
2022-12-05T20:32:43.648Z,34.15
2022-12-05T20:35:14.255Z,34.58
2022-12-05T20:37:44.432Z,33.95
2022-12-05T20:40:18.209Z,34.20
2022-12-05T20:42:50.200Z,33.17
2022-12-05T20:45:20.518Z,36.03
2022-12-05T20:47:51.500Z,33.55
2022-12-05T20:50:24.179Z,32.17
2022-12-05T20:52:54.281Z,33.92
2022-12-05T20:55:26.952Z,32.30
2022-12-05T20:57:59.282Z,34.67
2022-12-05T21:00:33.428Z,31.90
2022-12-05T21:03:03.589Z,32.10
2022-12-05T21:05:33.739Z,30.50
2022-12-05T21:08:03.803Z,33.97
2022-12-05T21:10:37.477Z,32.17
2022-12-05T21:13:07.711Z,32.65
2022-12-05T21:15:39.030Z,33.22
2022-12-05T21:18:11.280Z,35.10
2022-12-05T21:20:42.376Z,34.28
2022-12-05T21:23:19.157Z,30.25
2022-12-05T21:25:51.855Z,31.13
2022-12-05T21:28:22.175Z,31.65
2022-12-05T21:30:52.187Z,29.80
2022-12-05T21:33:27.324Z,33.22
2022-12-05T21:35:59.032Z,31.25
2022-12-05T21:38:29.333Z,29.10
2022-12-05T21:41:05.437Z,33.28
2022-12-05T21:43:41.802Z,31.23
2022-12-05T21:46:12.352Z,32.10
2022-12-05T21:48:42.476Z,31.70
2022-12-05T21:51:13.092Z,31.13
2022-12-05T21:53:43.506Z,30.27
2022-12-05T21:56:18.453Z,29.58
2022-12-05T21:58:49.520Z,33.15
2022-12-05T22:01:21.716Z,33.90
2022-12-05T22:03:54.876Z,30.63
2022-12-05T22:06:25.343Z,29.42
2022-12-05T22:08:57.071Z,30.25
2022-12-05T22:11:30.011Z,31.52
2022-12-05T22:14:00.098Z,29.45
2022-12-05T22:16:33.135Z,30.38
2022-12-05T22:19:03.928Z,25.30
2022-12-05T22:21:38.858Z,27.63
2022-12-05T22:24:09.839Z,30.17
2022-12-05T22:26:42.509Z,29.95
2022-12-05T22:29:13.207Z,28.77
2022-12-05T22:31:43.394Z,30.13
2022-12-05T22:34:13.688Z,27.17
2022-12-05T22:36:43.705Z,30.42
2022-12-05T22:39:14.040Z,33.15
2022-12-05T22:41:46.780Z,29.63
2022-12-05T22:44:16.897Z,30.38
2022-12-05T22:46:47.462Z,34.13
2022-12-05T22:49:21.100Z,30.92
2022-12-05T22:51:55.203Z,28.48
2022-12-05T22:54:30.043Z,28.08
2022-12-05T22:57:02.929Z,29.00
2022-12-05T22:59:33.142Z,26.30
2022-12-05T23:02:03.323Z,31.45
2022-12-05T23:04:33.664Z,33.33
2022-12-05T23:07:04.402Z,27.92
2022-12-05T23:09:34.728Z,33.28
2022-12-05T23:12:12.957Z,29.08
2022-12-05T23:14:47.807Z,31.17
2022-12-05T23:17:17.778Z,30.88
2022-12-05T23:19:47.660Z,27.60
2022-12-05T23:22:17.594Z,30.98
2022-12-05T23:24:47.497Z,28.80
2022-12-05T23:27:20.102Z,27.00
2022-12-05T23:29:50.636Z,28.92
2022-12-05T23:32:20.822Z,30.08
2022-12-05T23:34:50.734Z,30.15
2022-12-05T23:37:20.695Z,29.80
2022-12-05T23:39:51.076Z,30.48
2022-12-05T23:42:24.491Z,32.95
2022-12-05T23:44:54.376Z,29.73
2022-12-05T23:47:24.328Z,32.38
2022-12-05T23:49:54.187Z,29.98
2022-12-05T23:52:24.116Z,31.10
2022-12-05T23:54:54.115Z,30.33
2022-12-05T23:57:26.551Z,28.88
2022-12-05T23:59:56.623Z,27.83
